createdAt,value
2022-08-18T00:01:19.540Z,44.47
2022-08-18T00:03:57.428Z,49.08
2022-08-18T00:06:29.581Z,42.83
2022-08-18T00:09:00.720Z,46.58
2022-08-18T00:11:41.504Z,43.83
2022-08-18T00:14:22.660Z,44.13
2022-08-18T00:16:54.893Z,38.55
2022-08-18T00:19:46.257Z,41.00
2022-08-18T00:22:15.911Z,41.90
2022-08-18T00:24:54.395Z,41.63
2022-08-18T00:27:30.662Z,39.40
2022-08-18T00:30:02.152Z,38.65
2022-08-18T00:32:37.995Z,34.58
2022-08-18T00:35:18.403Z,38.58
2022-08-18T00:37:45.921Z,29.52
2022-08-18T00:40:20.824Z,35.28
2022-08-18T00:42:56.071Z,28.20
2022-08-18T00:45:32.737Z,25.52
2022-08-18T00:48:00.854Z,25.50
2022-08-18T00:50:51.129Z,29.67
2022-08-18T00:53:41.025Z,23.73
2022-08-18T00:56:24.690Z,27.05
2022-08-18T00:59:28.609Z,26.35
2022-08-18T01:02:02.611Z,21.67
2022-08-18T01:04:43.007Z,23.13
2022-08-18T01:07:21.782Z,23.58
2022-08-18T01:09:51.546Z,22.38
2022-08-18T01:12:43.947Z,22.88
2022-08-18T01:15:08.834Z,24.70
2022-08-18T01:18:19.719Z,21.33
2022-08-18T01:21:38.949Z,22.23
2022-08-18T01:24:12.846Z,23.25
2022-08-18T01:26:49.905Z,27.27
2022-08-18T01:29:19.941Z,28.85
2022-08-18T01:31:56.033Z,23.42
2022-08-18T01:34:28.297Z,23.85
2022-08-18T01:36:57.029Z,17.95
2022-08-18T01:41:22.378Z,17.25
2022-08-18T01:42:17.411Z,20.33
2022-08-18T01:44:48.503Z,17.38
2022-08-18T01:47:18.201Z,18.15
2022-08-18T01:49:45.789Z,17.13
2022-08-18T01:52:21.868Z,17.73
2022-08-18T01:54:51.462Z,16.25
2022-08-18T01:57:21.314Z,18.08
2022-08-18T01:59:48.781Z,17.38
2022-08-18T02:02:28.444Z,10.63
2022-08-18T02:05:05.210Z,12.25
2022-08-18T02:07:36.370Z,13.30
2022-08-18T02:10:11.716Z,12.57
2022-08-18T02:12:41.205Z,9.88
2022-08-18T02:15:10.072Z,8.73
2022-08-18T02:17:44.234Z,8.70
2022-08-18T02:20:18.228Z,8.98
2022-08-18T02:22:47.497Z,11.65
2022-08-18T02:25:17.185Z,10.40
2022-08-18T02:27:45.899Z,7.80
2022-08-18T02:30:18.531Z,8.23
2022-08-18T02:32:45.970Z,10.13
2022-08-18T02:35:13.306Z,9.32
2022-08-18T02:37:42.748Z,7.30
2022-08-18T02:40:15.197Z,9.50
2022-08-18T02:42:46.376Z,9.07
2022-08-18T02:45:14.808Z,7.97
2022-08-18T02:47:47.164Z,8.18
2022-08-18T02:50:16.541Z,7.55
2022-08-18T02:52:43.717Z,8.63
2022-08-18T02:55:12.295Z,11.38
2022-08-18T02:57:45.951Z,8.18
2022-08-18T03:00:18.975Z,9.20
2022-08-18T03:02:52.012Z,10.43
2022-08-18T03:05:20.285Z,9.65
2022-08-18T03:07:47.658Z,12.15
2022-08-18T03:10:33.409Z,9.75
2022-08-18T03:13:02.326Z,9.88
2022-08-18T03:15:29.767Z,8.43
2022-08-18T03:17:58.049Z,11.20
2022-08-18T03:20:30.485Z,17.05
2022-08-18T03:23:05.582Z,14.55
2022-08-18T03:25:45.048Z,9.93
2022-08-18T03:30:41.190Z,11.57
2022-08-18T03:33:08.967Z,12.25
2022-08-18T03:35:37.408Z,8.90
2022-08-18T03:38:05.658Z,9.32
2022-08-18T03:40:33.409Z,7.97
2022-08-18T03:43:23.741Z,7.75
2022-08-18T03:45:56.052Z,7.73
2022-08-18T03:48:23.428Z,10.20
2022-08-18T03:50:50.713Z,8.80
2022-08-18T03:53:18.595Z,8.00
2022-08-18T03:55:46.090Z,11.05
2022-08-18T03:58:13.669Z,8.65
2022-08-18T04:00:41.779Z,13.13
2022-08-18T04:03:09.668Z,10.27
2022-08-18T04:05:41.087Z,13.90
2022-08-18T04:08:08.434Z,12.20
2022-08-18T04:10:35.826Z,12.98
2022-08-18T04:13:05.478Z,14.43
2022-08-18T04:15:33.680Z,13.68
2022-08-18T04:18:08.313Z,15.38
2022-08-18T04:20:36.340Z,14.40
2022-08-18T04:23:03.705Z,14.18
2022-08-18T04:25:33.143Z,14.93
2022-08-18T04:28:03.509Z,13.80
2022-08-18T04:30:31.318Z,16.88
2022-08-18T04:32:58.677Z,17.05
2022-08-18T04:35:29.127Z,13.23
2022-08-18T04:37:56.486Z,12.18
2022-08-18T04:40:25.319Z,14.85
2022-08-18T04:42:52.874Z,13.18
2022-08-18T04:45:20.237Z,14.18
2022-08-18T04:47:47.585Z,12.40
2022-08-18T04:50:14.949Z,12.57
2022-08-18T04:53:02.320Z,11.88
2022-08-18T04:55:30.040Z,9.40
2022-08-18T04:57:59.327Z,16.73
2022-08-18T05:00:26.718Z,12.07
2022-08-18T05:02:54.527Z,13.23
2022-08-18T05:05:21.822Z,11.65
2022-08-18T05:07:49.547Z,11.13
2022-08-18T05:10:19.911Z,12.10
2022-08-18T05:12:48.627Z,12.20
2022-08-18T05:15:17.661Z,11.50
2022-08-18T05:17:45.334Z,13.20
2022-08-18T05:20:18.212Z,17.30
2022-08-18T05:22:45.582Z,15.05
2022-08-18T05:25:13.410Z,19.27
2022-08-18T05:27:43.917Z,14.85
2022-08-18T05:30:15.376Z,26.67
2022-08-18T05:32:49.953Z,25.85
2022-08-18T05:35:42.596Z,20.02
2022-08-18T05:38:32.466Z,25.15
2022-08-18T05:41:13.644Z,18.05
2022-08-18T05:43:51.895Z,19.52
2022-08-18T05:46:35.150Z,25.48
2022-08-18T05:49:02.409Z,19.02
2022-08-18T05:51:42.819Z,23.85
2022-08-18T05:54:30.096Z,23.75
2022-08-18T05:57:08.706Z,26.33
2022-08-18T05:59:41.288Z,25.33
2022-08-18T06:02:27.716Z,27.45
2022-08-18T06:05:05.273Z,25.27
2022-08-18T06:07:44.763Z,24.35
2022-08-18T06:10:14.344Z,29.58
2022-08-18T06:12:51.767Z,25.88
2022-08-18T06:16:12.688Z,31.33
2022-08-18T06:19:36.161Z,27.75
2022-08-18T06:22:16.586Z,31.65
2022-08-18T06:25:02.013Z,32.33
2022-08-18T06:28:01.596Z,25.67
2022-08-18T06:30:38.811Z,29.50
2022-08-18T06:33:31.667Z,26.90
2022-08-18T06:36:35.976Z,23.60
2022-08-18T06:39:40.690Z,24.92
2022-08-18T06:42:08.082Z,24.33
2022-08-18T06:44:51.600Z,21.75
2022-08-18T06:47:41.374Z,20.80
2022-08-18T06:50:48.053Z,19.35
2022-08-18T06:55:56.386Z,24.77
2022-08-18T06:58:31.372Z,31.02
2022-08-18T07:01:07.641Z,25.20
2022-08-18T07:03:46.349Z,23.88
2022-08-18T07:06:23.109Z,23.85
2022-08-18T07:08:54.938Z,25.98
2022-08-18T07:11:34.251Z,19.83
2022-08-18T07:14:22.833Z,22.38
2022-08-18T07:16:59.846Z,16.85
2022-08-18T07:19:32.451Z,14.05
2022-08-18T07:22:12.656Z,24.83
2022-08-18T07:24:54.309Z,18.63
2022-08-18T07:27:49.198Z,20.70
2022-08-18T07:30:22.009Z,23.73
2022-08-18T07:33:21.174Z,16.55
2022-08-18T07:35:59.792Z,18.88
2022-08-18T07:38:53.370Z,17.50
2022-08-18T07:41:40.893Z,17.05
2022-08-18T07:44:27.433Z,16.95
2022-08-18T07:47:42.974Z,17.65
2022-08-18T07:50:36.172Z,17.25
2022-08-18T07:53:25.657Z,19.60
2022-08-18T07:56:07.494Z,22.10
2022-08-18T07:59:14.883Z,16.98
2022-08-18T08:02:29.054Z,17.90
2022-08-18T08:05:44.976Z,15.65
2022-08-18T08:08:30.858Z,15.95
2022-08-18T08:11:18.583Z,16.17
2022-08-18T08:14:35.566Z,22.70
2022-08-18T08:17:17.750Z,15.65
2022-08-18T08:20:12.670Z,15.95
2022-08-18T08:23:17.992Z,15.18
2022-08-18T08:26:37.152Z,15.73
2022-08-18T08:30:02.553Z,16.33
2022-08-18T08:32:41.741Z,14.73
2022-08-18T08:35:49.274Z,13.82
2022-08-18T08:38:44.969Z,18.10
2022-08-18T08:41:26.117Z,15.32
2022-08-18T08:44:25.632Z,20.73
2022-08-18T08:47:32.231Z,18.23
2022-08-18T08:50:10.754Z,19.17
2022-08-18T08:53:41.809Z,15.98
2022-08-18T08:56:14.604Z,16.98
2022-08-18T08:59:22.690Z,17.75
2022-08-18T09:02:15.940Z,16.77
2022-08-18T09:05:19.509Z,20.73
2022-08-18T09:08:21.875Z,22.10
2022-08-18T09:11:33.596Z,22.13
2022-08-18T09:14:57.195Z,20.83
2022-08-18T09:18:25.526Z,23.30
2022-08-18T09:21:40.809Z,23.40
2022-08-18T09:24:45.165Z,18.83
2022-08-18T09:28:09.390Z,23.50
2022-08-18T09:35:05.562Z,28.75
2022-08-18T09:38:27.122Z,24.10
2022-08-18T09:41:32.416Z,23.40
2022-08-18T09:44:18.212Z,27.65
2022-08-18T09:46:58.040Z,25.33
2022-08-18T09:50:37.216Z,22.85
2022-08-18T09:52:24.185Z,23.98
2022-08-18T09:55:00.902Z,21.48
2022-08-18T10:00:14.581Z,21.95
2022-08-18T10:02:48.704Z,27.58
2022-08-18T10:05:19.956Z,30.42
2022-08-18T10:11:16.482Z,31.23
2022-08-18T10:14:51.372Z,36.83
2022-08-18T10:18:11.740Z,35.15
2022-08-18T10:20:47.630Z,38.00
2022-08-18T10:26:54.574Z,43.05
2022-08-18T10:29:28.479Z,44.88
2022-08-18T10:31:55.941Z,43.50
2022-08-18T10:37:49.133Z,42.90
2022-08-18T10:40:22.884Z,34.08
2022-08-18T10:46:39.626Z,31.50
2022-08-18T10:49:13.837Z,32.17
2022-08-18T10:52:18.067Z,31.00
2022-08-18T10:55:10.201Z,35.60
2022-08-18T10:58:40.665Z,35.20
2022-08-18T11:01:55.664Z,32.00
2022-08-18T11:04:47.404Z,27.67
2022-08-18T11:07:34.039Z,33.67
2022-08-18T11:10:30.361Z,33.70
2022-08-18T11:13:54.618Z,34.67
2022-08-18T11:17:13.057Z,38.58
2022-08-18T11:19:46.736Z,33.92
2022-08-18T11:22:33.236Z,33.83
2022-08-18T11:25:18.692Z,36.05
2022-08-18T11:27:49.106Z,28.08
2022-08-18T11:30:18.951Z,27.00
2022-08-18T11:32:52.268Z,22.67
2022-08-18T11:35:30.003Z,20.63
2022-08-18T11:38:04.010Z,24.88
2022-08-18T11:41:13.027Z,24.83
2022-08-18T11:43:43.020Z,24.08
2022-08-18T11:46:30.422Z,22.02
2022-08-18T11:49:01.893Z,20.30
2022-08-18T11:51:33.986Z,21.40
2022-08-18T11:57:59.348Z,18.92
2022-08-18T12:00:45.468Z,22.13
2022-08-18T12:03:43.819Z,24.25
2022-08-18T12:06:30.281Z,17.40
2022-08-18T12:09:16.381Z,16.00
2022-08-18T12:11:58.825Z,19.92
2022-08-18T12:14:35.541Z,19.40
2022-08-18T12:17:08.409Z,16.42
2022-08-18T12:19:35.826Z,17.38
2022-08-18T12:22:19.380Z,14.90
2022-08-18T12:24:48.557Z,14.23
2022-08-18T12:30:16.694Z,14.48
2022-08-18T12:35:31.667Z,15.75
2022-08-18T12:38:03.271Z,16.42
2022-08-18T12:40:40.006Z,13.43
2022-08-18T12:43:07.598Z,12.93
2022-08-18T12:48:22.621Z,11.13
2022-08-18T12:50:55.844Z,9.95
2022-08-18T12:53:29.890Z,9.38
2022-08-18T12:56:32.703Z,11.00
2022-08-18T12:59:05.270Z,11.55
2022-08-18T13:01:35.686Z,11.80
2022-08-18T13:04:13.373Z,10.48
2022-08-18T13:07:00.458Z,13.50
2022-08-18T13:09:42.814Z,13.73
2022-08-18T13:12:20.058Z,11.60
2022-08-18T13:14:51.204Z,11.07
2022-08-18T13:17:29.425Z,9.27
2022-08-18T13:20:13.467Z,11.82
2022-08-18T13:22:41.728Z,14.05
2022-08-18T13:25:32.176Z,8.80
2022-08-18T13:28:05.515Z,9.25
2022-08-18T13:30:35.542Z,8.05
2022-08-18T13:33:05.828Z,8.57
2022-08-18T13:35:54.406Z,9.20
2022-08-18T13:38:26.047Z,9.48
2022-08-18T13:41:04.828Z,11.65
2022-08-18T13:43:43.206Z,10.68
2022-08-18T13:46:19.682Z,11.00
2022-08-18T13:49:03.154Z,9.85
2022-08-18T13:51:31.229Z,11.68
2022-08-18T13:54:26.665Z,12.93
2022-08-18T13:56:51.268Z,10.45
2022-08-18T13:59:22.465Z,12.00
2022-08-18T14:01:53.202Z,10.65
2022-08-18T14:04:22.812Z,15.45
2022-08-18T14:06:56.877Z,11.13
2022-08-18T14:09:37.263Z,10.55
2022-08-18T14:12:22.423Z,9.57
2022-08-18T14:14:56.893Z,8.25
2022-08-18T14:17:26.019Z,8.25
2022-08-18T14:20:15.154Z,6.55
2022-08-18T14:23:11.987Z,7.43
2022-08-18T14:25:59.953Z,5.00
2022-08-18T14:28:30.245Z,4.32
2022-08-18T14:31:00.453Z,7.20
2022-08-18T14:33:49.541Z,4.30
2022-08-18T14:36:18.997Z,5.35
2022-08-18T14:38:46.436Z,5.85
2022-08-18T14:41:20.232Z,5.25
2022-08-18T14:44:11.027Z,7.10
2022-08-18T14:46:51.985Z,5.95
2022-08-18T14:49:29.452Z,6.03
2022-08-18T14:54:30.608Z,6.50
2022-08-18T14:57:01.699Z,6.97
2022-08-18T14:59:30.940Z,6.50
2022-08-18T15:02:02.164Z,11.30
2022-08-18T15:04:29.563Z,4.75
2022-08-18T15:06:57.724Z,7.40
2022-08-18T15:09:30.131Z,7.20
2022-08-18T15:12:00.094Z,4.68
2022-08-18T15:14:33.166Z,7.00
2022-08-18T15:17:11.728Z,6.45
2022-08-18T15:20:00.193Z,5.18
2022-08-18T15:22:47.786Z,7.40
2022-08-18T15:25:41.907Z,8.20
2022-08-18T15:28:17.528Z,7.97
2022-08-18T15:30:52.129Z,10.95
2022-08-18T15:33:24.287Z,7.15
2022-08-18T15:35:53.528Z,4.68
2022-08-18T15:38:25.472Z,4.28
2022-08-18T15:41:05.936Z,5.63
2022-08-18T15:43:45.839Z,4.70
2022-08-18T15:46:14.024Z,3.80
2022-08-18T15:48:44.260Z,5.65
2022-08-18T15:51:12.480Z,3.03
2022-08-18T15:53:44.872Z,3.85
2022-08-18T15:56:25.968Z,4.63
2022-08-18T15:58:53.736Z,4.28
2022-08-18T16:01:32.129Z,2.13
2022-08-18T16:04:01.131Z,2.78
2022-08-18T16:06:32.657Z,2.97
2022-08-18T16:09:02.287Z,4.28
2022-08-18T16:11:30.408Z,3.05
2022-08-18T16:13:59.070Z,3.17
2022-08-18T16:16:36.233Z,3.42
2022-08-18T16:19:07.778Z,2.78
2022-08-18T16:21:39.585Z,3.55
2022-08-18T16:24:08.520Z,4.35
2022-08-18T16:26:35.917Z,5.03
2022-08-18T16:29:03.417Z,3.72
2022-08-18T16:31:30.741Z,3.63
2022-08-18T16:33:58.375Z,3.60
2022-08-18T16:36:26.389Z,3.13
2022-08-18T16:38:58.290Z,5.18
2022-08-18T16:41:26.991Z,3.60
2022-08-18T16:43:54.721Z,4.13
2022-08-18T16:46:26.188Z,2.70
2022-08-18T16:48:56.444Z,2.47
2022-08-18T16:51:27.381Z,3.05
2022-08-18T16:53:55.568Z,2.95
2022-08-18T16:56:30.498Z,2.75
2022-08-18T16:59:16.531Z,7.15
2022-08-18T17:02:02.830Z,3.10
2022-08-18T17:04:33.781Z,4.03
2022-08-18T17:07:05.080Z,4.95
2022-08-18T17:09:35.259Z,4.55
2022-08-18T17:12:03.148Z,6.45
2022-08-18T17:14:32.489Z,3.28
2022-08-18T17:17:01.176Z,4.20
2022-08-18T17:19:34.074Z,5.18
2022-08-18T17:22:05.199Z,4.00
2022-08-18T17:24:33.199Z,3.95
2022-08-18T17:27:26.168Z,5.57
2022-08-18T17:30:18.730Z,6.32
2022-08-18T17:33:08.786Z,7.68
2022-08-18T17:35:45.521Z,8.52
2022-08-18T17:38:40.357Z,7.25
2022-08-18T17:41:07.637Z,3.30
2022-08-18T17:46:28.997Z,8.35
2022-08-18T17:49:54.412Z,4.70
2022-08-18T17:52:52.637Z,4.30
2022-08-18T17:55:39.194Z,4.90
2022-08-18T18:00:47.958Z,3.47
2022-08-18T18:03:15.412Z,4.45
2022-08-18T18:05:51.894Z,5.30
2022-08-18T18:08:19.336Z,5.60
2022-08-18T18:11:04.245Z,7.40
2022-08-18T18:13:33.821Z,6.00
2022-08-18T18:16:29.167Z,4.95
2022-08-18T18:19:13.074Z,5.85
2022-08-18T18:22:00.337Z,4.13
2022-08-18T18:24:37.124Z,4.10
2022-08-18T18:27:27.853Z,4.80
2022-08-18T18:30:08.079Z,4.28
2022-08-18T18:33:00.465Z,5.47
2022-08-18T18:35:54.305Z,7.05
2022-08-18T18:38:38.704Z,4.72
2022-08-18T18:41:27.144Z,5.00
2022-08-18T18:44:11.254Z,8.25
2022-08-18T18:47:12.632Z,4.88
2022-08-18T18:50:14.695Z,4.10
2022-08-18T18:53:37.023Z,4.45
2022-08-18T18:56:45.627Z,4.38
2022-08-18T19:00:18.112Z,7.85
2022-08-18T19:03:11.038Z,6.18
2022-08-18T19:05:59.180Z,6.57
2022-08-18T19:09:17.273Z,5.47
2022-08-18T19:12:18.787Z,8.13
2022-08-18T19:15:08.324Z,3.97
2022-08-18T19:17:49.313Z,3.25
2022-08-18T19:20:36.789Z,4.57
2022-08-18T19:23:44.848Z,3.72
2022-08-18T19:26:28.342Z,6.05
2022-08-18T19:29:16.018Z,5.13
2022-08-18T19:32:17.190Z,4.35
2022-08-18T19:34:51.199Z,4.03
2022-08-18T19:40:45.293Z,4.72
2022-08-18T19:43:39.997Z,6.38
2022-08-18T19:46:24.273Z,5.00
2022-08-18T19:49:22.703Z,4.43
2022-08-18T19:51:58.501Z,6.70
2022-08-18T19:55:09.997Z,4.97
2022-08-18T19:58:31.961Z,5.00
2022-08-18T20:01:07.658Z,5.97
2022-08-18T20:04:18.149Z,4.57
2022-08-18T20:07:20.810Z,4.97
2022-08-18T20:10:36.684Z,5.10
2022-08-18T20:13:32.547Z,6.03
2022-08-18T20:16:02.649Z,6.43
2022-08-18T20:18:47.410Z,5.90
2022-08-18T20:21:14.682Z,5.30
2022-08-18T20:24:22.294Z,5.47
2022-08-18T20:26:50.708Z,5.40
2022-08-18T20:29:46.360Z,6.65
2022-08-18T20:32:31.973Z,7.18
2022-08-18T20:35:26.832Z,5.50
2022-08-18T20:38:34.722Z,9.13
2022-08-18T20:41:30.000Z,8.07
2022-08-18T20:44:36.321Z,6.65
2022-08-18T20:48:03.028Z,4.90
2022-08-18T20:51:11.974Z,5.20
2022-08-18T20:54:25.036Z,6.22
2022-08-18T20:57:01.509Z,4.82
2022-08-18T21:00:02.155Z,6.30
2022-08-18T21:02:40.625Z,6.78
2022-08-18T21:05:10.486Z,5.82
2022-08-18T21:08:16.113Z,6.38
2022-08-18T21:11:06.994Z,10.10
2022-08-18T21:13:43.480Z,5.68
2022-08-18T21:16:43.245Z,6.68
2022-08-18T21:19:27.857Z,14.13
2022-08-18T21:22:04.306Z,9.55
2022-08-18T21:24:37.650Z,6.85
2022-08-18T21:27:35.257Z,10.65
2022-08-18T21:30:23.621Z,8.07
2022-08-18T21:32:52.006Z,7.40
2022-08-18T21:35:35.294Z,10.50
2022-08-18T21:38:12.161Z,10.27
2022-08-18T21:40:48.253Z,10.00
2022-08-18T21:43:49.638Z,8.50
2022-08-18T21:46:29.319Z,10.82
2022-08-18T21:49:03.697Z,9.68
2022-08-18T21:51:49.524Z,7.65
2022-08-18T21:54:27.895Z,9.18
2022-08-18T21:57:46.411Z,12.00
2022-08-18T22:00:41.479Z,10.38
2022-08-18T22:03:28.117Z,9.52
2022-08-18T22:06:26.136Z,10.30
2022-08-18T22:09:27.886Z,9.80
2022-08-18T22:12:54.126Z,12.00
2022-08-18T22:15:27.474Z,9.88
2022-08-18T22:18:07.888Z,10.57
2022-08-18T22:20:47.774Z,7.65
2022-08-18T22:23:33.447Z,11.32
2022-08-18T22:26:26.759Z,6.22
2022-08-18T22:29:32.437Z,9.07
2022-08-18T22:32:02.333Z,10.32
2022-08-18T22:34:34.250Z,10.02
2022-08-18T22:37:08.121Z,7.68
2022-08-18T22:40:21.597Z,8.13
2022-08-18T22:42:49.612Z,7.13
2022-08-18T22:45:18.759Z,6.65
2022-08-18T22:47:46.048Z,7.15
2022-08-18T22:50:14.938Z,7.53
2022-08-18T22:52:49.527Z,7.28
2022-08-18T22:55:25.589Z,8.17
2022-08-18T22:57:57.059Z,5.85
2022-08-18T23:00:25.805Z,5.95
2022-08-18T23:02:54.778Z,7.22
2022-08-18T23:05:22.361Z,5.28
2022-08-18T23:07:49.945Z,4.88
2022-08-18T23:10:18.216Z,7.30
2022-08-18T23:12:47.981Z,10.77
2022-08-18T23:15:18.806Z,10.20
2022-08-18T23:17:46.177Z,11.40
2022-08-18T23:20:18.360Z,12.10
2022-08-18T23:22:48.164Z,8.18
2022-08-18T23:25:15.759Z,11.68
2022-08-18T23:27:43.259Z,10.40
2022-08-18T23:30:11.682Z,10.30
2022-08-18T23:32:39.269Z,5.50
2022-08-18T23:35:07.296Z,7.47
2022-08-18T23:37:34.718Z,10.77
2022-08-18T23:40:02.534Z,10.68
2022-08-18T23:42:31.566Z,5.50
2022-08-18T23:45:03.013Z,7.68
2022-08-18T23:47:30.933Z,9.40
2022-08-18T23:49:58.421Z,6.10
2022-08-18T23:52:25.702Z,7.65
2022-08-18T23:54:52.989Z,5.88
2022-08-18T23:57:20.265Z,5.13
2022-08-18T23:59:47.509Z,8.18
